Time;durP1;ratioP1;P1;durP2;ratioP2;P2;SDS_P1;SDS_P2;PMS_P1;PMS_P2;Temp;Humidity;BMP_temperature;BMP_pressure;BME280_temperature;BME280_humidity;BME280_pressure;Samples;Min_cycle;Max_cycle;Signal;HPM_P1;HPM_P2
2020/12/16 00:01:46;;;;;;;150.77;28.53;;;;;;;3.69;98.64;101533.63;4961818;28;20022;-76
2020/12/16 00:04:12;;;;;;;211.60;33.05;;;;;;;3.66;98.74;101536.00;4961976;28;20031;-78
2020/12/16 00:06:37;;;;;;;129.98;26.98;;;;;;;3.60;98.57;101539.03;4958986;28;20022;-78
2020/12/16 00:09:03;;;;;;;328.10;36.03;;;;;;;3.50;98.59;101529.06;4961925;28;20434;-77
2020/12/16 00:11:28;;;;;;;294.52;31.63;;;;;;;3.53;98.52;101521.63;4964953;28;20674;-77
2020/12/16 00:13:54;;;;;;;193.10;25.53;;;;;;;3.64;98.60;101520.66;4986782;28;20037;-80
2020/12/16 00:16:19;;;;;;;106.47;24.70;;;;;;;3.65;98.65;101519.00;4972026;28;20369;-79
2020/12/16 00:18:44;;;;;;;107.65;20.75;;;;;;;3.56;98.18;101516.72;4966619;28;20026;-80
2020/12/16 00:21:09;;;;;;;86.57;26.33;;;;;;;3.56;98.38;101516.72;4973345;28;20030;-79
2020/12/16 00:23:35;;;;;;;86.40;27.60;;;;;;;3.70;98.40;101520.16;4988718;28;20290;-79
2020/12/16 00:26:00;;;;;;;90.20;25.92;;;;;;;3.83;98.35;101525.19;4970623;28;20030;-79
2020/12/16 00:28:26;;;;;;;158.23;26.40;;;;;;;3.84;98.25;101526.94;4966310;28;20059;-79
2020/12/16 00:30:51;;;;;;;162.65;24.77;;;;;;;3.78;98.05;101528.22;4966399;28;20030;-79
2020/12/16 00:33:17;;;;;;;181.35;24.00;;;;;;;3.75;97.99;101528.94;4984748;28;20019;-79
2020/12/16 00:35:44;;;;;;;183.60;24.17;;;;;;;3.74;97.93;101527.16;4983482;28;20049;-79
2020/12/16 00:38:11;;;;;;;112.20;22.87;;;;;;;3.65;98.03;101519.88;4979205;28;20080;-79
2020/12/16 00:40:36;;;;;;;117.13;19.50;;;;;;;3.60;97.82;101522.91;4985968;28;20062;-79
2020/12/16 00:43:01;;;;;;;129.32;18.70;;;;;;;3.50;97.80;101525.63;4964894;28;20031;-81
2020/12/16 00:45:27;;;;;;;127.47;19.40;;;;;;;3.59;97.79;101534.72;4967245;28;20026;-78
2020/12/16 00:47:52;;;;;;;201.80;23.45;;;;;;;3.42;97.45;101528.56;4965809;28;20090;-79
2020/12/16 00:50:17;;;;;;;269.70;27.30;;;;;;;3.37;97.97;101534.16;4980949;28;20073;-78
2020/12/16 00:52:43;;;;;;;259.70;30.27;;;;;;;3.36;98.20;101533.28;4966395;28;20030;-79
2020/12/16 00:55:08;;;;;;;243.43;29.63;;;;;;;3.43;98.31;101534.53;4984943;28;20058;-80
2020/12/16 00:57:33;;;;;;;277.90;35.43;;;;;;;3.54;98.34;101538.63;4963115;28;20274;-78
2020/12/16 01:00:00;;;;;;;196.75;31.13;;;;;;;3.59;98.34;101542.34;4982482;28;20433;-79
2020/12/16 01:02:25;;;;;;;170.97;24.63;;;;;;;3.58;98.40;101542.25;4966875;28;20075;-79
2020/12/16 01:04:51;;;;;;;157.57;24.13;;;;;;;3.56;98.28;101542.13;4968392;28;20014;-79
2020/12/16 01:07:16;;;;;;;126.70;20.57;;;;;;;3.47;98.12;101546.66;4979228;28;20782;-79
2020/12/16 01:09:41;;;;;;;174.17;20.27;;;;;;;3.43;97.79;101549.78;4981566;28;20056;-80
2020/12/16 01:12:07;;;;;;;225.90;22.80;;;;;;;3.39;97.69;101545.28;4969960;28;20419;-79
2020/12/16 01:14:32;;;;;;;254.38;24.25;;;;;;;3.18;98.01;101547.31;4969193;28;20269;-79
2020/12/16 01:16:57;;;;;;;323.13;32.13;;;;;;;3.11;98.23;101546.06;4963274;28;20447;-79
2020/12/16 01:19:22;;;;;;;272.47;32.47;;;;;;;3.09;98.32;101552.69;4962157;28;20042;-79
2020/12/16 01:21:48;;;;;;;278.70;34.77;;;;;;;3.16;98.30;101553.97;4977259;28;20274;-79
2020/12/16 01:24:13;;;;;;;108.05;28.13;;;;;;;3.32;98.39;101560.91;4977647;28;20639;-78
2020/12/16 01:26:40;;;;;;;79.60;25.58;;;;;;;3.29;98.50;101555.66;4982668;28;20026;-79
2020/12/16 01:29:08;;;;;;;52.30;18.57;;;;;;;3.23;98.52;101551.03;4964275;28;20053;-77
2020/12/16 01:31:44;;;;;;;224.07;18.77;;;;;;;3.10;98.21;101551.03;4980152;28;20088;-78
2020/12/16 01:34:11;;;;;;;125.03;15.52;;;;;;;2.97;98.17;101551.91;4958437;28;20057;-78
2020/12/16 01:36:40;;;;;;;155.63;15.37;;;;;;;2.91;98.16;101548.94;4965109;28;20052;-77
2020/12/16 01:39:07;;;;;;;266.97;27.43;;;;;;;3.04;98.42;101569.28;4965398;28;20041;-77
2020/12/16 01:41:33;;;;;;;316.40;32.83;;;;;;;3.10;98.42;101564.59;4982277;28;20104;-77
2020/12/16 01:44:12;;;;;;;261.27;33.25;;;;;;;3.28;98.60;101561.50;4977239;28;20038;-78
2020/12/16 01:46:53;;;;;;;182.30;28.57;;;;;;;3.34;98.98;101560.22;4979447;28;20106;-78
2020/12/16 01:49:20;;;;;;;137.10;27.90;;;;;;;3.34;98.36;101564.44;4960480;28;20026;-78
2020/12/16 01:51:50;;;;;;;138.53;25.73;;;;;;;3.29;98.17;101565.81;4963774;28;20034;-79
2020/12/16 01:54:17;;;;;;;213.27;30.10;;;;;;;3.29;98.29;101565.81;4978993;28;20512;-78
2020/12/16 01:56:45;;;;;;;231.83;30.13;;;;;;;3.27;98.21;101562.28;4964010;28;20030;-79
2020/12/16 01:59:14;;;;;;;391.17;37.97;;;;;;;3.10;98.09;101563.72;4960965;28;20102;-79
2020/12/16 02:01:41;;;;;;;458.97;47.80;;;;;;;3.05;98.54;101560.88;4966300;28;20023;-79
2020/12/16 02:04:11;;;;;;;451.63;66.20;;;;;;;3.12;98.39;101549.47;4973953;28;20023;-78
2020/12/16 02:06:36;;;;;;;268.30;50.60;;;;;;;3.28;98.77;101539.53;4985745;28;20476;-80
2020/12/16 02:09:05;;;;;;;363.75;52.30;;;;;;;3.21;98.85;101541.56;4968069;28;20030;-80
2020/12/16 02:11:31;;;;;;;404.63;65.30;;;;;;;3.36;98.95;101537.47;4963241;28;20369;-79
2020/12/16 02:13:57;;;;;;;267.47;57.00;;;;;;;3.49;99.01;101549.28;4963052;28;20019;-78
2020/12/16 02:16:23;;;;;;;416.58;62.03;;;;;;;3.52;99.30;101550.34;4961639;28;20026;-80
2020/12/16 02:18:51;;;;;;;305.92;47.20;;;;;;;3.56;99.07;101551.41;4967084;28;20075;-79
2020/12/16 02:21:16;;;;;;;241.00;42.80;;;;;;;3.54;98.88;101558.94;4986496;28;20049;-79
2020/12/16 02:23:44;;;;;;;282.00;51.80;;;;;;;3.48;98.98;101553.47;4972933;28;20480;-80
2020/12/16 02:26:10;;;;;;;352.27;53.27;;;;;;;3.41;98.98;101546.25;4967055;28;20113;-79
2020/12/16 02:28:35;;;;;;;356.42;63.90;;;;;;;3.42;99.33;101556.50;4967029;28;20054;-78
2020/12/16 02:31:01;;;;;;;237.98;59.80;;;;;;;3.49;99.27;101550.16;4985615;28;20479;-80
2020/12/16 02:33:26;;;;;;;156.57;52.00;;;;;;;3.58;99.03;101553.31;4963798;28;20022;-79
2020/12/16 02:35:51;;;;;;;154.40;45.50;;;;;;;3.55;99.36;101560.69;4963616;28;20042;-79
2020/12/16 02:38:17;;;;;;;303.60;57.97;;;;;;;3.54;99.24;101564.03;4963118;28;20791;-80
2020/12/16 02:40:42;;;;;;;141.97;46.97;;;;;;;3.57;99.09;101559.13;4967972;28;20027;-80
2020/12/16 02:43:07;;;;;;;153.93;42.00;;;;;;;3.56;99.00;101575.16;4968799;28;20290;-79
2020/12/16 02:45:32;;;;;;;125.63;36.40;;;;;;;3.47;99.12;101574.59;4980149;28;20079;-79
2020/12/16 02:47:58;;;;;;;302.90;35.87;;;;;;;3.37;98.70;101567.16;4982676;28;20357;-80
2020/12/16 02:50:23;;;;;;;273.70;33.80;;;;;;;3.28;98.37;101564.03;4966374;28;20883;-79
2020/12/16 02:52:48;;;;;;;260.07;34.17;;;;;;;3.16;98.05;101564.13;4967641;28;20023;-80
2020/12/16 02:55:13;;;;;;;297.70;37.07;;;;;;;3.10;98.16;101564.59;4965095;28;20289;-78
2020/12/16 02:57:39;;;;;;;390.67;45.10;;;;;;;3.05;98.38;101568.50;4963303;28;20433;-80
2020/12/16 03:00:05;;;;;;;204.43;53.17;;;;;;;3.04;98.42;101565.88;4983063;28;20027;-79
2020/12/16 03:02:30;;;;;;;;;;;;;;;3.37;98.62;101572.25;4963013;28;20285;-79
2020/12/16 03:04:55;;;;;;;269.77;76.80;;;;;;;3.57;99.03;101568.41;4964497;28;19927;-79
2020/12/16 03:07:21;;;;;;;220.13;67.50;;;;;;;3.67;98.86;101571.66;4978111;28;20026;-79
2020/12/16 03:09:46;;;;;;;145.50;55.97;;;;;;;3.68;99.26;101578.50;4967202;28;20109;-78
2020/12/16 03:12:11;;;;;;;158.17;47.27;;;;;;;3.62;98.93;101572.16;4974741;28;20033;-79
2020/12/16 03:14:37;;;;;;;209.25;48.58;;;;;;;3.52;98.79;101568.13;4980112;28;20069;-79
2020/12/16 03:17:02;;;;;;;165.48;46.83;;;;;;;3.63;99.08;101564.63;4962832;28;20033;-79
2020/12/16 03:19:27;;;;;;;279.77;53.23;;;;;;;3.47;98.99;101559.34;4981691;28;20053;-80
2020/12/16 03:21:53;;;;;;;231.50;51.63;;;;;;;3.45;99.09;101563.44;4983528;28;20412;-79
2020/12/16 03:24:20;;;;;;;250.07;57.78;;;;;;;3.50;99.06;101561.19;4976990;28;20030;-79
2020/12/16 03:26:45;;;;;;;184.90;53.60;;;;;;;3.56;nan;101556.50;4958577;28;20407;-79
2020/12/16 03:29:10;;;;;;;184.27;47.33;;;;;;;3.52;99.10;101563.03;4957441;28;20026;-79
2020/12/16 03:31:36;;;;;;;269.63;46.80;;;;;;;3.46;98.93;101570.28;4983748;28;20269;-79
2020/12/16 03:34:01;;;;;;;396.08;47.20;;;;;;;3.25;98.81;101572.34;4959078;28;20046;-79
2020/12/16 03:36:27;;;;;;;377.83;52.65;;;;;;;3.25;98.69;101566.34;4980009;28;20030;-79
2020/12/16 03:38:52;;;;;;;394.98;67.25;;;;;;;3.37;98.72;101562.09;4962813;28;20018;-79
2020/12/16 03:41:17;;;;;;;396.30;72.50;;;;;;;3.46;98.80;101560.13;4962225;28;20022;-79
2020/12/16 03:43:45;;;;;;;415.48;80.05;;;;;;;3.60;99.22;101559.34;4966600;28;20093;-78
2020/12/16 03:46:11;;;;;;;394.00;78.97;;;;;;;3.62;99.17;101557.78;4967987;28;20023;-80
2020/12/16 03:48:37;;;;;;;409.10;74.65;;;;;;;3.59;99.25;101562.69;4983593;28;20031;-79
2020/12/16 03:51:04;;;;;;;305.05;69.88;;;;;;;3.59;99.34;101567.75;4981288;28;20037;-79
2020/12/16 03:53:29;;;;;;;285.13;69.63;;;;;;;3.57;99.28;101563.34;4960842;28;20034;-79
2020/12/16 03:55:54;;;;;;;252.50;64.60;;;;;;;3.58;99.26;101563.47;4967190;28;20027;-80
2020/12/16 03:58:20;;;;;;;246.13;65.47;;;;;;;3.55;99.45;101565.78;4971363;28;20356;-80
2020/12/16 04:00:45;;;;;;;347.87;71.50;;;;;;;3.54;99.58;101569.09;4972655;28;20029;-81
2020/12/16 04:03:11;;;;;;;349.73;75.50;;;;;;;3.58;99.43;101566.00;4967787;28;20054;-79
2020/12/16 04:05:36;;;;;;;353.42;79.10;;;;;;;3.60;99.26;101563.56;4972730;28;20022;-79
2020/12/16 04:08:03;;;;;;;432.33;92.37;;;;;;;3.64;99.44;101571.47;4990169;28;20026;-79
2020/12/16 04:10:28;;;;;;;398.77;93.23;;;;;;;3.76;99.31;101581.50;4985809;28;20107;-80
2020/12/16 04:12:53;;;;;;;510.13;105.83;;;;;;;3.82;99.42;101581.00;4967001;28;20062;-79
2020/12/16 04:15:18;;;;;;;467.33;95.50;;;;;;;3.84;99.56;101575.22;4985162;28;20277;-80
2020/12/16 04:17:44;;;;;;;539.63;99.30;;;;;;;3.86;99.49;101572.78;4986412;28;20028;-79
2020/12/16 04:20:09;;;;;;;622.13;104.03;;;;;;;3.86;99.43;101563.50;4981008;28;20273;-79
2020/12/16 04:22:34;;;;;;;567.57;104.70;;;;;;;3.92;99.69;101563.91;4985208;28;20293;-79
2020/12/16 04:24:59;;;;;;;608.17;103.57;;;;;;;4.00;99.32;101572.00;4969048;28;20031;-78
2020/12/16 04:27:25;;;;;;;611.63;100.97;;;;;;;4.06;99.52;101567.28;4984994;28;20029;-78
2020/12/16 04:29:50;;;;;;;464.65;89.85;;;;;;;4.04;99.67;101569.72;4963661;28;20274;-78
2020/12/16 04:32:15;;;;;;;590.40;95.53;;;;;;;4.09;99.57;101571.66;4965179;28;20427;-77
2020/12/16 04:34:41;;;;;;;594.90;98.40;;;;;;;4.15;99.60;101575.47;4978868;28;20282;-77
2020/12/16 04:37:06;;;;;;;541.03;95.05;;;;;;;4.25;99.75;101575.25;4983872;28;20356;-78
2020/12/16 04:39:32;;;;;;;536.60;90.88;;;;;;;4.26;99.69;101569.38;4965637;28;20090;-77
2020/12/16 04:41:57;;;;;;;545.67;88.20;;;;;;;4.25;99.61;101570.16;4977717;28;20022;-77
2020/12/16 04:44:22;;;;;;;503.58;77.05;;;;;;;4.23;99.90;101560.69;4964830;28;20371;-78
2020/12/16 04:46:48;;;;;;;443.17;75.93;;;;;;;4.25;99.60;101560.00;4961499;28;20023;-77
2020/12/16 04:49:14;;;;;;;383.05;66.90;;;;;;;4.25;99.80;101565.06;4961920;28;20365;-78
2020/12/16 04:51:41;;;;;;;;;;;;;;;4.22;99.64;101567.41;4959264;28;20058;-77
2020/12/16 04:54:06;;;;;;;437.77;76.47;;;;;;;4.17;99.65;101566.25;4976545;28;19921;-77
2020/12/16 04:56:33;;;;;;;497.52;78.30;;;;;;;4.17;99.78;101570.47;4963980;28;20093;-77
2020/12/16 04:58:58;;;;;;;512.77;85.77;;;;;;;4.13;99.82;101574.47;4961737;28;20034;-79
2020/12/16 05:01:24;;;;;;;494.73;79.10;;;;;;;4.15;99.95;101569.50;4966120;28;20033;-79
2020/12/16 05:03:50;;;;;;;377.83;63.28;;;;;;;4.23;99.88;101570.88;4984401;28;20072;-79
2020/12/16 05:06:35;;;;;;;419.77;69.20;;;;;;;4.16;100.00;101579.75;4962083;28;21755;-79
2020/12/16 05:09:07;;;;;;;286.40;54.63;;;;;;;4.20;99.91;101576.59;4967190;28;20075;-80
2020/12/16 05:11:46;;;;;;;359.33;65.70;;;;;;;4.25;99.97;101580.34;4961575;28;20026;-79
2020/12/16 05:14:17;;;;;;;358.63;67.57;;;;;;;4.17;99.82;101583.19;4963606;28;20019;-78
2020/12/16 05:17:03;;;;;;;461.73;70.00;;;;;;;4.10;100.00;101581.94;4963396;28;20532;-80
2020/12/16 05:19:34;;;;;;;445.90;68.10;;;;;;;4.07;100.00;101585.16;4983629;28;20026;-78
2020/12/16 05:22:20;;;;;;;466.40;67.57;;;;;;;4.04;100.00;101594.28;4967354;28;20034;-79
2020/12/16 05:24:48;;;;;;;466.70;65.60;;;;;;;4.02;100.00;101590.75;4983606;28;20031;-79
2020/12/16 05:27:32;;;;;;;370.10;59.77;;;;;;;4.00;100.00;101582.16;4984817;28;20027;-78
2020/12/16 05:29:59;;;;;;;315.87;55.17;;;;;;;4.10;100.00;101581.94;4963804;28;20026;-78
2020/12/16 05:32:29;;;;;;;324.93;53.27;;;;;;;4.12;99.99;101587.09;4962091;28;20044;-78
2020/12/16 05:34:57;;;;;;;320.23;48.87;;;;;;;4.10;100.00;101581.94;4965562;28;20034;-79
2020/12/16 05:37:26;;;;;;;257.57;48.73;;;;;;;4.18;99.83;101590.91;4965889;28;20449;-80
2020/12/16 05:40:05;;;;;;;272.80;47.07;;;;;;;4.23;99.95;101578.50;4978197;28;20030;-79
2020/12/16 05:42:31;;;;;;;305.33;49.33;;;;;;;4.15;100.00;101587.28;4978267;28;20501;-79
2020/12/16 05:44:59;;;;;;;336.77;47.60;;;;;;;4.22;100.00;101582.66;4958882;28;20034;-79
2020/12/16 05:47:25;;;;;;;324.93;50.27;;;;;;;4.20;100.00;101581.69;4979913;28;20031;-78
2020/12/16 05:49:50;;;;;;;;;;;;;;;4.29;100.00;101572.09;4962989;28;20022;-79
2020/12/16 05:52:16;;;;;;;292.27;48.10;;;;;;;4.29;100.00;101572.09;4982590;28;19975;-78
2020/12/16 05:54:46;;;;;;;248.02;46.20;;;;;;;4.36;100.00;101576.75;4964719;28;20039;-82
2020/12/16 05:57:17;;;;;;;284.97;47.40;;;;;;;4.37;100.00;101585.28;4965709;28;20056;-78
2020/12/16 06:00:04;;;;;;;259.03;43.27;;;;;;;4.42;100.00;101588.97;4963721;28;20380;-79
2020/12/16 06:02:48;;;;;;;327.45;50.88;;;;;;;4.41;100.00;101581.25;4966250;28;20038;-79
2020/12/16 06:05:15;;;;;;;423.97;54.93;;;;;;;4.37;100.00;101575.97;4966468;28;20555;-79
2020/12/16 06:07:43;;;;;;;305.50;48.80;;;;;;;4.52;100.00;101588.72;4961143;28;20046;-78
2020/12/16 06:10:09;;;;;;;366.20;53.20;;;;;;;4.51;100.00;101579.34;4983698;28;20074;-79
2020/12/16 06:12:38;;;;;;;330.35;51.22;;;;;;;4.53;99.94;101584.50;4966142;28;20048;-81
2020/12/16 06:15:05;;;;;;;301.57;50.33;;;;;;;4.61;100.00;101575.69;4982208;28;20023;-78
2020/12/16 06:17:36;;;;;;;374.53;51.17;;;;;;;4.55;99.85;101566.03;4966820;28;20030;-79
2020/12/16 06:20:03;;;;;;;286.27;44.83;;;;;;;4.65;100.00;101564.91;4965908;28;20034;-79
2020/12/16 06:22:33;;;;;;;235.57;45.30;;;;;;;4.72;100.00;101568.69;4964884;28;20121;-78
2020/12/16 06:25:02;;;;;;;216.97;44.93;;;;;;;4.74;100.00;101578.16;4967500;28;20034;-79
2020/12/16 06:27:37;;;;;;;297.33;45.40;;;;;;;4.69;100.00;101579.56;4961524;28;20030;-79
2020/12/16 06:30:04;;;;;;;233.63;42.20;;;;;;;4.73;100.00;101575.53;4979385;28;20070;-79
2020/12/16 06:32:38;;;;;;;278.83;44.73;;;;;;;4.68;100.00;101573.59;4981237;28;20034;-79
2020/12/16 06:35:04;;;;;;;261.80;40.47;;;;;;;4.72;100.00;101578.88;4983499;28;20026;-80
2020/12/16 06:37:29;;;;;;;283.65;44.00;;;;;;;4.70;99.94;101581.31;4963048;28;20037;-80
2020/12/16 06:39:54;;;;;;;221.77;43.83;;;;;;;4.81;99.92;101575.19;4961005;28;20022;-77
2020/12/16 06:42:34;;;;;;;214.30;41.10;;;;;;;4.82;99.97;101578.59;4962847;28;20635;-77
2020/12/16 06:45:09;;;;;;;228.27;41.73;;;;;;;4.81;100.00;101585.38;4981221;28;20038;-79
2020/12/16 06:47:34;;;;;;;193.40;38.37;;;;;;;4.84;100.00;101582.13;4962142;28;20049;-79
2020/12/16 06:50:15;;;;;;;163.10;36.83;;;;;;;4.80;100.00;101572.53;4982691;28;20102;-78
2020/12/16 06:52:40;;;;;;;234.30;38.47;;;;;;;4.79;100.00;101566.56;4958340;28;20361;-77
2020/12/16 06:55:07;;;;;;;172.90;30.73;;;;;;;4.81;99.94;101570.09;4961051;28;20106;-78
2020/12/16 06:57:45;;;;;;;149.20;30.17;;;;;;;4.78;99.88;101572.47;4962850;28;20050;-78
2020/12/16 07:00:20;;;;;;;278.57;40.60;;;;;;;4.77;100.00;101574.91;4977850;28;20088;-77
2020/12/16 07:02:45;;;;;;;188.73;37.70;;;;;;;4.83;99.86;101588.88;4975109;28;20031;-77
2020/12/16 07:05:36;;;;;;;242.48;36.72;;;;;;;4.76;99.84;101580.78;4980609;28;20072;-77
2020/12/16 07:08:01;;;;;;;204.67;38.43;;;;;;;4.75;100.00;101590.09;4960964;28;20035;-78
2020/12/16 07:10:41;;;;;;;229.52;38.35;;;;;;;4.78;99.84;101590.28;4981618;28;20111;-78
2020/12/16 07:13:13;;;;;;;202.37;36.70;;;;;;;4.79;99.79;101591.16;4964606;28;20077;-79
2020/12/16 07:15:52;;;;;;;177.23;35.93;;;;;;;4.78;99.96;101590.28;4974090;28;20049;-78
2020/12/16 07:18:28;;;;;;;225.60;40.20;;;;;;;4.75;100.00;101589.22;4981081;28;20084;-78
2020/12/16 07:21:24;;;;;;;268.10;40.83;;;;;;;4.73;100.00;101586.59;4960511;28;20034;-81
2020/12/16 07:24:05;;;;;;;231.77;42.97;;;;;;;4.74;99.97;101588.34;4966269;28;20355;-79
2020/12/16 07:26:47;;;;;;;231.37;39.67;;;;;;;4.79;100.00;101589.47;4966305;28;20044;-78
2020/12/16 07:29:51;;;;;;;178.93;38.80;;;;;;;4.83;99.94;101588.00;4982698;28;20031;-77
2020/12/16 07:32:20;;;;;;;182.17;39.07;;;;;;;4.83;100.00;101588.88;4978691;28;20038;-78
2020/12/16 07:34:52;;;;;;;170.53;37.17;;;;;;;4.89;100.00;101581.63;4980356;28;20114;-79
2020/12/16 07:37:24;;;;;;;168.50;39.60;;;;;;;4.87;99.85;101593.34;4976254;28;20093;-79
2020/12/16 07:39:55;;;;;;;192.30;38.13;;;;;;;4.85;99.70;101587.28;4963263;28;20479;-78
2020/12/16 07:42:25;;;;;;;216.40;40.23;;;;;;;4.83;99.82;101581.22;4964143;28;20042;-78
2020/12/16 07:44:50;;;;;;;204.73;40.63;;;;;;;4.82;99.97;101578.59;4961958;28;20030;-78
2020/12/16 07:47:17;;;;;;;225.82;39.13;;;;;;;4.82;99.68;101582.03;4982207;28;20026;-78
2020/12/16 07:49:43;;;;;;;161.80;36.80;;;;;;;4.87;99.56;101585.72;4981176;28;20046;-78
2020/12/16 07:52:09;;;;;;;189.45;37.70;;;;;;;4.84;99.78;101595.72;4983634;28;20464;-79
2020/12/16 07:54:34;;;;;;;;;;;;;;;4.89;99.67;101588.38;4965064;28;20100;-77
2020/12/16 07:57:01;;;;;;;260.37;51.90;;;;;;;4.82;99.91;101597.28;4981267;28;19948;-78
2020/12/16 07:59:31;;;;;;;181.10;40.93;;;;;;;4.92;99.92;101591.97;4965621;28;20027;-78
2020/12/16 08:02:11;;;;;;;169.13;42.97;;;;;;;4.96;99.51;101595.56;4963163;28;20376;-77
2020/12/16 08:04:38;;;;;;;164.67;40.63;;;;;;;5.00;99.77;101584.78;4962506;28;20026;-79
2020/12/16 08:07:19;;;;;;;154.27;39.27;;;;;;;5.05;99.82;101590.13;4963734;28;20022;-80
2020/12/16 08:10:00;;;;;;;127.43;35.50;;;;;;;5.06;99.41;101591.88;4982432;28;20115;-78
2020/12/16 08:12:27;;;;;;;153.87;39.90;;;;;;;5.02;99.30;101600.13;4964087;28;20018;-78
2020/12/16 08:15:19;;;;;;;162.77;39.73;;;;;;;5.04;99.53;101598.56;4983133;28;20054;-79
2020/12/16 08:17:51;;;;;;;122.83;35.40;;;;;;;5.08;99.39;101592.84;4984918;28;20037;-78
2020/12/16 08:20:25;;;;;;;123.97;37.13;;;;;;;5.05;99.06;101593.56;4960963;28;20073;-78
2020/12/16 08:22:56;;;;;;;121.33;34.60;;;;;;;5.11;99.22;101591.34;4963108;28;20053;-78
2020/12/16 08:25:22;;;;;;;131.93;38.83;;;;;;;5.13;98.93;101594.00;4962101;28;20027;-79
2020/12/16 08:27:50;;;;;;;109.65;37.47;;;;;;;5.16;99.03;101589.06;4964542;28;20022;-80
2020/12/16 08:30:18;;;;;;;140.43;38.77;;;;;;;5.11;98.72;101595.56;4981241;28;20065;-78
2020/12/16 08:33:16;;;;;;;119.87;38.83;;;;;;;5.18;98.87;101598.53;4976165;28;20041;-79
2020/12/16 08:35:49;;;;;;;106.03;35.47;;;;;;;5.16;98.65;101595.03;4963232;28;20022;-80
2020/12/16 08:38:25;;;;;;;124.17;36.23;;;;;;;5.17;98.87;101591.69;4963705;28;20075;-79
2020/12/16 08:40:51;;;;;;;116.77;37.20;;;;;;;5.22;98.77;101590.31;4965402;28;20022;-78
2020/12/16 08:43:17;;;;;;;;;;;;;;;5.32;98.46;101600.22;4964808;28;20030;-80
2020/12/16 08:45:43;;;;;;;111.10;36.63;;;;;;;5.34;98.46;101599.44;4980803;28;19918;-79
2020/12/16 08:48:10;;;;;;;102.57;34.08;;;;;;;5.31;98.79;101595.06;4965454;28;20300;-80
2020/12/16 08:50:36;;;;;;;99.40;34.27;;;;;;;5.33;98.48;101598.56;4965860;28;20463;-78
2020/12/16 08:53:01;;;;;;;77.10;31.73;;;;;;;5.31;98.04;101592.50;4960333;28;20050;-78
2020/12/16 08:55:26;;;;;;;104.95;34.65;;;;;;;5.27;97.97;101582.94;4980613;28;20035;-78
2020/12/16 08:58:01;;;;;;;129.00;41.60;;;;;;;5.25;97.94;101587.06;4983016;28;20026;-78
2020/12/16 09:00:31;;;;;;;125.70;40.67;;;;;;;5.25;98.27;101593.03;4976660;28;20031;-78
2020/12/16 09:03:08;;;;;;;99.30;37.83;;;;;;;5.29;98.18;101606.81;4959331;28;20121;-79
2020/12/16 09:05:38;;;;;;;103.83;38.43;;;;;;;5.29;98.05;101604.28;4981599;28;20112;-78
2020/12/16 09:08:27;;;;;;;106.50;36.83;;;;;;;5.16;97.84;101594.16;4961327;28;20037;-77
2020/12/16 09:10:57;;;;;;;105.73;38.93;;;;;;;5.07;97.93;101594.50;4982032;28;20520;-79
2020/12/16 09:13:23;;;;;;;102.60;40.17;;;;;;;5.07;97.94;101598.72;4961571;28;20109;-78
2020/12/16 09:15:50;;;;;;;81.50;33.50;;;;;;;5.19;97.72;101599.44;4964961;28;20114;-78
2020/12/16 09:18:15;;;;;;;83.53;33.27;;;;;;;5.20;97.74;101602.09;4960693;28;20034;-79
2020/12/16 09:20:41;;;;;;;78.93;33.13;;;;;;;5.21;97.25;101608.06;4965015;28;20045;-78
2020/12/16 09:23:06;;;;;;;80.85;33.42;;;;;;;5.29;97.26;101606.81;4961999;28;20057;-79
2020/12/16 09:25:32;;;;;;;68.63;31.40;;;;;;;5.43;97.07;101615.25;4961520;28;20022;-79
2020/12/16 09:27:59;;;;;;;78.18;33.78;;;;;;;5.62;96.46;101618.03;4966003;28;20019;-78
2020/12/16 09:30:33;;;;;;;71.07;30.90;;;;;;;5.77;95.98;101623.97;4965222;28;20026;-81
2020/12/16 09:33:13;;;;;;;57.20;27.27;;;;;;;5.65;95.89;101619.88;4968974;28;20026;-80
2020/12/16 09:35:44;;;;;;;58.37;29.27;;;;;;;5.78;95.46;101625.72;4966491;28;20041;-81
2020/12/16 09:38:18;;;;;;;62.70;29.57;;;;;;;5.84;95.26;101626.06;4964878;28;20054;-79
2020/12/16 09:40:44;;;;;;;54.43;26.40;;;;;;;5.94;94.79;101627.50;4967970;28;20026;-80
2020/12/16 09:43:12;;;;;;;46.37;24.33;;;;;;;5.88;94.51;101625.47;4983815;28;20057;-79
2020/12/16 09:45:38;;;;;;;50.33;25.63;;;;;;;5.99;94.64;101620.09;4968143;28;20066;-80
2020/12/16 09:48:06;;;;;;;42.67;25.70;;;;;;;5.98;94.25;101619.22;4968804;28;20308;-78
2020/12/16 09:50:33;;;;;;;48.47;22.97;;;;;;;6.13;94.21;101619.16;4985913;28;20060;-80
2020/12/16 09:53:10;;;;;;;43.67;24.80;;;;;;;6.08;94.20;101606.16;4991224;28;20019;-80
2020/12/16 09:55:37;;;;;;;42.77;24.33;;;;;;;6.18;93.85;101605.00;4965002;28;20117;-79
2020/12/16 09:58:05;;;;;;;43.60;24.60;;;;;;;6.22;93.82;101609.47;4965167;28;20114;-80
2020/12/16 10:00:32;;;;;;;39.97;23.13;;;;;;;6.30;93.81;101622.63;4988907;28;20514;-79
2020/12/16 10:03:02;;;;;;;36.60;21.87;;;;;;;6.53;93.17;101607.75;4965297;28;20076;-78
2020/12/16 10:05:28;;;;;;;35.73;20.63;;;;;;;6.63;91.97;101608.19;4959236;28;20181;-78
2020/12/16 10:07:54;;;;;;;30.63;19.23;;;;;;;6.65;91.63;101617.69;4958327;28;20514;-78
2020/12/16 10:10:20;;;;;;;26.20;17.05;;;;;;;6.93;90.92;101606.34;4966951;28;20018;-79
2020/12/16 10:12:46;;;;;;;24.73;15.50;;;;;;;7.26;89.78;101600.34;4977144;28;20533;-78
2020/12/16 10:15:11;;;;;;;20.85;14.52;;;;;;;7.48;88.49;101592.06;4962756;28;20121;-79
2020/12/16 10:17:36;;;;;;;23.13;14.67;;;;;;;7.52;88.21;101598.19;4967795;28;20110;-79
2020/12/16 10:20:04;;;;;;;23.58;14.07;;;;;;;7.48;87.82;101592.94;4978339;28;20339;-78
2020/12/16 10:22:29;;;;;;;25.47;14.13;;;;;;;7.53;88.05;101597.38;4978879;28;20038;-78
2020/12/16 10:24:55;;;;;;;21.90;13.73;;;;;;;7.41;88.86;101587.44;4963811;28;20492;-78
2020/12/16 10:27:20;;;;;;;21.65;13.68;;;;;;;7.27;89.24;101586.78;4966037;28;20035;-79
2020/12/16 10:29:46;;;;;;;20.98;13.75;;;;;;;7.32;89.75;101590.44;4964320;28;20079;-78
2020/12/16 10:32:11;;;;;;;23.98;14.13;;;;;;;7.68;89.33;101582.75;4978094;28;20030;-79
2020/12/16 10:34:36;;;;;;;20.45;12.77;;;;;;;8.26;86.28;101585.44;4966480;28;20026;-80
2020/12/16 10:37:01;;;;;;;17.40;11.90;;;;;;;9.03;83.40;101572.59;4976715;28;20126;-78
2020/12/16 10:39:27;;;;;;;17.17;10.65;;;;;;;8.89;82.94;101560.91;4978957;28;20286;-79
2020/12/16 10:41:57;;;;;;;16.75;10.32;;;;;;;8.39;84.98;101574.97;4959202;28;20038;-79
2020/12/16 10:44:23;;;;;;;17.17;11.48;;;;;;;8.16;86.12;101575.59;4963294;28;20023;-78
2020/12/16 10:46:50;;;;;;;;;;;;;;;8.36;86.10;101583.38;4983017;28;20058;-79
2020/12/16 10:49:16;;;;;;;16.63;10.82;;;;;;;8.50;86.83;101558.41;4977750;28;20378;-80
2020/12/16 10:51:42;;;;;;;;;;;;;;;8.78;84.82;101565.59;4960066;28;20023;-81
2020/12/16 10:54:07;;;;;;;18.70;9.83;;;;;;;9.07;83.61;101547.97;4961551;28;20311;-80
2020/12/16 10:56:33;;;;;;;15.38;10.95;;;;;;;9.51;82.14;101547.19;4971871;28;20427;-78
2020/12/16 10:58:58;;;;;;;14.32;9.02;;;;;;;9.61;80.74;101541.59;4962726;28;20057;-79
2020/12/16 11:01:23;;;;;;;15.30;9.48;;;;;;;9.39;81.59;101533.88;4960768;28;20026;-79
2020/12/16 11:03:49;;;;;;;12.30;8.50;;;;;;;9.26;81.12;101520.56;4963821;28;20026;-80
2020/12/16 11:06:16;;;;;;;14.93;9.48;;;;;;;9.19;82.25;101522.84;4972708;28;20270;-79
2020/12/16 11:08:50;;;;;;;15.18;8.95;;;;;;;9.16;82.45;101518.47;4958581;28;20043;-79
2020/12/16 11:11:15;;;;;;;13.15;8.90;;;;;;;9.45;81.72;101511.06;4967682;28;20021;-80
2020/12/16 11:13:40;;;;;;;16.88;7.63;;;;;;;9.61;81.49;101510.81;4984743;28;20026;-80
2020/12/16 11:16:05;;;;;;;16.53;8.40;;;;;;;9.73;81.44;101511.28;4979110;28;20042;-80
2020/12/16 11:18:31;;;;;;;16.30;9.53;;;;;;;9.82;80.65;101518.47;4959015;28;20277;-80